sensor_id;sensor_type;location;lat;lon;timestamp;P1;durP1;ratioP1;P2;durP2;ratioP2
1366;SDS011;16877;48.810;9.282;2022-12-18T00:00:09;49.17;;;44.10;;
1366;SDS011;16877;48.810;9.282;2022-12-18T00:02:38;51.60;;;46.03;;
1366;SDS011;16877;48.810;9.282;2022-12-18T00:05:06;51.80;;;46.33;;
1366;SDS011;16877;48.810;9.282;2022-12-18T00:07:35;48.13;;;43.00;;
1366;SDS011;16877;48.810;9.282;2022-12-18T00:10:03;46.40;;;41.40;;
1366;SDS011;16877;48.810;9.282;2022-12-18T00:12:32;47.57;;;42.67;;
1366;SDS011;16877;48.810;9.282;2022-12-18T00:14:59;49.07;;;43.87;;
1366;SDS011;16877;48.810;9.282;2022-12-18T00:17:27;47.57;;;42.47;;
1366;SDS011;16877;48.810;9.282;2022-12-18T00:19:59;49.37;;;44.27;;
1366;SDS011;16877;48.810;9.282;2022-12-18T00:22:26;49.07;;;43.90;;
1366;SDS011;16877;48.810;9.282;2022-12-18T00:24:56;46.73;;;41.63;;
1366;SDS011;16877;48.810;9.282;2022-12-18T00:27:25;49.50;;;44.10;;
1366;SDS011;16877;48.810;9.282;2022-12-18T00:29:53;47.83;;;42.90;;
1366;SDS011;16877;48.810;9.282;2022-12-18T00:32:21;46.97;;;42.27;;
1366;SDS011;16877;48.810;9.282;2022-12-18T00:34:48;45.80;;;41.07;;
1366;SDS011;16877;48.810;9.282;2022-12-18T00:37:31;50.40;;;45.40;;
1366;SDS011;16877;48.810;9.282;2022-12-18T00:40:16;46.17;;;41.33;;
1366;SDS011;16877;48.810;9.282;2022-12-18T00:42:46;47.33;;;42.43;;
1366;SDS011;16877;48.810;9.282;2022-12-18T00:45:21;47.20;;;42.33;;
1366;SDS011;16877;48.810;9.282;2022-12-18T00:47:52;50.17;;;44.80;;
1366;SDS011;16877;48.810;9.282;2022-12-18T00:50:21;51.03;;;45.77;;
1366;SDS011;16877;48.810;9.282;2022-12-18T00:52:52;47.57;;;42.50;;
1366;SDS011;16877;48.810;9.282;2022-12-18T00:55:24;48.67;;;43.67;;
1366;SDS011;16877;48.810;9.282;2022-12-18T00:58:07;50.10;;;44.73;;
1366;SDS011;16877;48.810;9.282;2022-12-18T01:00:39;49.50;;;44.20;;
1366;SDS011;16877;48.810;9.282;2022-12-18T01:03:06;49.80;;;44.60;;
1366;SDS011;16877;48.810;9.282;2022-12-18T01:05:34;45.73;;;40.87;;
1366;SDS011;16877;48.810;9.282;2022-12-18T01:08:07;49.47;;;44.27;;
1366;SDS011;16877;48.810;9.282;2022-12-18T01:10:37;51.37;;;45.97;;
1366;SDS011;16877;48.810;9.282;2022-12-18T01:13:07;48.37;;;43.40;;
1366;SDS011;16877;48.810;9.282;2022-12-18T01:15:39;45.90;;;41.10;;
1366;SDS011;16877;48.810;9.282;2022-12-18T01:18:07;45.70;;;40.77;;
1366;SDS011;16877;48.810;9.282;2022-12-18T01:20:34;44.83;;;39.40;;
1366;SDS011;16877;48.810;9.282;2022-12-18T01:23:01;45.07;;;40.17;;
1366;SDS011;16877;48.810;9.282;2022-12-18T01:25:29;45.03;;;40.23;;
1366;SDS011;16877;48.810;9.282;2022-12-18T01:27:58;42.73;;;38.13;;
1366;SDS011;16877;48.810;9.282;2022-12-18T01:30:30;45.10;;;38.83;;
1366;SDS011;16877;48.810;9.282;2022-12-18T01:32:57;43.27;;;38.67;;
1366;SDS011;16877;48.810;9.282;2022-12-18T01:35:24;46.67;;;41.60;;
1366;SDS011;16877;48.810;9.282;2022-12-18T01:37:53;47.50;;;42.37;;
1366;SDS011;16877;48.810;9.282;2022-12-18T01:40:21;44.20;;;39.73;;
1366;SDS011;16877;48.810;9.282;2022-12-18T01:42:49;50.10;;;44.50;;
1366;SDS011;16877;48.810;9.282;2022-12-18T01:48:02;47.87;;;42.97;;
1366;SDS011;16877;48.810;9.282;2022-12-18T01:50:33;49.83;;;44.70;;
1366;SDS011;16877;48.810;9.282;2022-12-18T01:53:06;48.33;;;43.10;;
1366;SDS011;16877;48.810;9.282;2022-12-18T01:55:36;49.33;;;44.07;;
1366;SDS011;16877;48.810;9.282;2022-12-18T01:58:07;51.40;;;45.93;;
1366;SDS011;16877;48.810;9.282;2022-12-18T02:00:38;46.93;;;41.93;;
1366;SDS011;16877;48.810;9.282;2022-12-18T02:03:06;53.17;;;47.80;;
1366;SDS011;16877;48.810;9.282;2022-12-18T02:05:36;51.63;;;45.87;;
1366;SDS011;16877;48.810;9.282;2022-12-18T02:08:10;47.73;;;42.30;;
1366;SDS011;16877;48.810;9.282;2022-12-18T02:11:00;48.13;;;43.13;;
1366;SDS011;16877;48.810;9.282;2022-12-18T02:13:36;46.50;;;41.53;;
1366;SDS011;16877;48.810;9.282;2022-12-18T02:16:10;49.07;;;43.90;;
1366;SDS011;16877;48.810;9.282;2022-12-18T02:18:45;48.10;;;42.93;;
1366;SDS011;16877;48.810;9.282;2022-12-18T02:21:32;50.43;;;45.20;;
1366;SDS011;16877;48.810;9.282;2022-12-18T02:24:12;48.37;;;43.10;;
1366;SDS011;16877;48.810;9.282;2022-12-18T02:26:52;49.40;;;44.10;;
1366;SDS011;16877;48.810;9.282;2022-12-18T02:29:25;47.27;;;42.33;;
1366;SDS011;16877;48.810;9.282;2022-12-18T02:32:03;49.97;;;44.57;;
1366;SDS011;16877;48.810;9.282;2022-12-18T02:34:38;46.70;;;41.73;;
1366;SDS011;16877;48.810;9.282;2022-12-18T02:37:07;44.30;;;39.57;;
1366;SDS011;16877;48.810;9.282;2022-12-18T02:39:38;48.00;;;42.80;;
1366;SDS011;16877;48.810;9.282;2022-12-18T02:42:10;49.93;;;43.43;;
1366;SDS011;16877;48.810;9.282;2022-12-18T02:44:41;45.93;;;40.93;;
1366;SDS011;16877;48.810;9.282;2022-12-18T02:47:10;45.03;;;40.20;;
1366;SDS011;16877;48.810;9.282;2022-12-18T02:49:40;47.40;;;40.87;;
1366;SDS011;16877;48.810;9.282;2022-12-18T02:55:00;45.47;;;40.77;;
1366;SDS011;16877;48.810;9.282;2022-12-18T02:57:39;43.53;;;38.93;;
1366;SDS011;16877;48.810;9.282;2022-12-18T03:00:12;42.77;;;38.13;;
1366;SDS011;16877;48.810;9.282;2022-12-18T03:02:47;44.50;;;39.70;;
1366;SDS011;16877;48.810;9.282;2022-12-18T03:05:21;43.53;;;38.90;;
1366;SDS011;16877;48.810;9.282;2022-12-18T03:07:52;46.63;;;41.17;;
1366;SDS011;16877;48.810;9.282;2022-12-18T03:10:25;41.60;;;37.20;;
1366;SDS011;16877;48.810;9.282;2022-12-18T03:12:59;43.17;;;38.70;;
1366;SDS011;16877;48.810;9.282;2022-12-18T03:15:31;43.63;;;38.97;;
1366;SDS011;16877;48.810;9.282;2022-12-18T03:18:17;43.50;;;37.93;;
1366;SDS011;16877;48.810;9.282;2022-12-18T03:20:48;40.60;;;36.33;;
1366;SDS011;16877;48.810;9.282;2022-12-18T03:23:20;42.30;;;37.70;;
1366;SDS011;16877;48.810;9.282;2022-12-18T03:25:51;39.40;;;35.10;;
1366;SDS011;16877;48.810;9.282;2022-12-18T03:28:24;41.40;;;37.00;;
1366;SDS011;16877;48.810;9.282;2022-12-18T03:30:58;41.80;;;37.43;;
1366;SDS011;16877;48.810;9.282;2022-12-18T03:33:29;39.87;;;35.67;;
1366;SDS011;16877;48.810;9.282;2022-12-18T03:36:01;39.23;;;35.00;;
1366;SDS011;16877;48.810;9.282;2022-12-18T03:38:30;38.00;;;33.90;;
1366;SDS011;16877;48.810;9.282;2022-12-18T03:40:59;39.67;;;35.57;;
1366;SDS011;16877;48.810;9.282;2022-12-18T03:43:38;36.47;;;32.53;;
1366;SDS011;16877;48.810;9.282;2022-12-18T03:46:14;37.10;;;33.20;;
1366;SDS011;16877;48.810;9.282;2022-12-18T03:48:48;39.13;;;35.10;;
1366;SDS011;16877;48.810;9.282;2022-12-18T03:51:21;38.97;;;34.73;;
1366;SDS011;16877;48.810;9.282;2022-12-18T03:54:07;41.40;;;37.10;;
1366;SDS011;16877;48.810;9.282;2022-12-18T03:56:37;37.23;;;33.40;;
1366;SDS011;16877;48.810;9.282;2022-12-18T03:59:12;41.83;;;37.43;;
1366;SDS011;16877;48.810;9.282;2022-12-18T04:01:43;40.10;;;36.07;;
1366;SDS011;16877;48.810;9.282;2022-12-18T04:04:15;40.40;;;36.00;;
1366;SDS011;16877;48.810;9.282;2022-12-18T04:06:44;42.63;;;37.80;;
1366;SDS011;16877;48.810;9.282;2022-12-18T04:09:14;42.13;;;37.60;;
1366;SDS011;16877;48.810;9.282;2022-12-18T04:11:42;41.43;;;37.10;;
1366;SDS011;16877;48.810;9.282;2022-12-18T04:14:11;38.07;;;34.00;;
1366;SDS011;16877;48.810;9.282;2022-12-18T04:16:39;40.43;;;36.03;;
1366;SDS011;16877;48.810;9.282;2022-12-18T04:19:07;37.87;;;33.80;;
1366;SDS011;16877;48.810;9.282;2022-12-18T04:21:34;36.73;;;32.93;;
1366;SDS011;16877;48.810;9.282;2022-12-18T04:24:02;38.10;;;34.07;;
1366;SDS011;16877;48.810;9.282;2022-12-18T04:26:30;40.43;;;36.03;;
1366;SDS011;16877;48.810;9.282;2022-12-18T04:28:58;36.53;;;32.63;;
1366;SDS011;16877;48.810;9.282;2022-12-18T04:31:42;37.03;;;32.50;;
1366;SDS011;16877;48.810;9.282;2022-12-18T04:34:10;36.47;;;32.27;;
1366;SDS011;16877;48.810;9.282;2022-12-18T04:36:38;36.67;;;32.80;;
1366;SDS011;16877;48.810;9.282;2022-12-18T04:39:06;37.60;;;33.70;;
1366;SDS011;16877;48.810;9.282;2022-12-18T04:41:34;35.83;;;31.97;;
1366;SDS011;16877;48.810;9.282;2022-12-18T04:44:03;39.20;;;35.00;;
1366;SDS011;16877;48.810;9.282;2022-12-18T04:46:47;38.20;;;34.27;;
1366;SDS011;16877;48.810;9.282;2022-12-18T04:49:16;36.73;;;32.90;;
1366;SDS011;16877;48.810;9.282;2022-12-18T04:51:43;34.13;;;30.47;;
1366;SDS011;16877;48.810;9.282;2022-12-18T04:54:12;37.57;;;33.33;;
1366;SDS011;16877;48.810;9.282;2022-12-18T04:56:39;40.10;;;34.77;;
1366;SDS011;16877;48.810;9.282;2022-12-18T04:59:07;37.33;;;33.50;;
1366;SDS011;16877;48.810;9.282;2022-12-18T05:01:34;36.80;;;32.80;;
1366;SDS011;16877;48.810;9.282;2022-12-18T05:04:03;38.30;;;34.10;;
1366;SDS011;16877;48.810;9.282;2022-12-18T05:06:31;38.67;;;34.67;;
1366;SDS011;16877;48.810;9.282;2022-12-18T05:08:59;36.20;;;32.50;;
1366;SDS011;16877;48.810;9.282;2022-12-18T05:11:41;36.43;;;32.53;;
1366;SDS011;16877;48.810;9.282;2022-12-18T05:14:08;38.07;;;33.87;;
1366;SDS011;16877;48.810;9.282;2022-12-18T05:16:36;35.40;;;31.60;;
1366;SDS011;16877;48.810;9.282;2022-12-18T05:19:05;37.23;;;33.23;;
1366;SDS011;16877;48.810;9.282;2022-12-18T05:21:33;35.93;;;32.13;;
1366;SDS011;16877;48.810;9.282;2022-12-18T05:24:01;35.57;;;31.67;;
1366;SDS011;16877;48.810;9.282;2022-12-18T05:26:29;36.07;;;32.10;;
1366;SDS011;16877;48.810;9.282;2022-12-18T05:28:56;38.27;;;34.10;;
1366;SDS011;16877;48.810;9.282;2022-12-18T05:31:29;36.30;;;32.80;;
1366;SDS011;16877;48.810;9.282;2022-12-18T05:33:57;39.20;;;33.93;;
1366;SDS011;16877;48.810;9.282;2022-12-18T05:36:27;36.20;;;32.40;;
1366;SDS011;16877;48.810;9.282;2022-12-18T05:38:55;37.53;;;33.70;;
1366;SDS011;16877;48.810;9.282;2022-12-18T05:41:22;37.57;;;33.53;;
1366;SDS011;16877;48.810;9.282;2022-12-18T05:43:51;35.87;;;31.93;;
1366;SDS011;16877;48.810;9.282;2022-12-18T05:46:18;36.13;;;32.20;;
1366;SDS011;16877;48.810;9.282;2022-12-18T05:49:01;36.33;;;32.07;;
1366;SDS011;16877;48.810;9.282;2022-12-18T05:51:30;36.63;;;32.73;;
1366;SDS011;16877;48.810;9.282;2022-12-18T05:53:58;37.30;;;33.27;;
1366;SDS011;16877;48.810;9.282;2022-12-18T05:56:26;34.00;;;30.43;;
1366;SDS011;16877;48.810;9.282;2022-12-18T05:58:54;33.90;;;30.23;;
1366;SDS011;16877;48.810;9.282;2022-12-18T06:01:23;37.30;;;32.07;;
1366;SDS011;16877;48.810;9.282;2022-12-18T06:03:52;35.17;;;31.37;;
1366;SDS011;16877;48.810;9.282;2022-12-18T06:06:20;37.50;;;32.50;;
1366;SDS011;16877;48.810;9.282;2022-12-18T06:08:52;33.60;;;30.00;;
1366;SDS011;16877;48.810;9.282;2022-12-18T06:11:21;33.60;;;30.10;;
1366;SDS011;16877;48.810;9.282;2022-12-18T06:14:05;33.70;;;30.17;;
1366;SDS011;16877;48.810;9.282;2022-12-18T06:16:32;34.30;;;30.57;;
1366;SDS011;16877;48.810;9.282;2022-12-18T06:19:01;31.93;;;28.57;;
1366;SDS011;16877;48.810;9.282;2022-12-18T06:21:30;34.83;;;31.03;;
1366;SDS011;16877;48.810;9.282;2022-12-18T06:24:00;33.27;;;29.13;;
1366;SDS011;16877;48.810;9.282;2022-12-18T06:26:27;33.90;;;30.33;;
1366;SDS011;16877;48.810;9.282;2022-12-18T06:28:54;36.10;;;32.30;;
1366;SDS011;16877;48.810;9.282;2022-12-18T06:31:23;33.93;;;30.33;;
1366;SDS011;16877;48.810;9.282;2022-12-18T06:33:51;31.87;;;28.43;;
1366;SDS011;16877;48.810;9.282;2022-12-18T06:36:18;35.70;;;31.33;;
1366;SDS011;16877;48.810;9.282;2022-12-18T06:38:48;35.13;;;31.40;;
1366;SDS011;16877;48.810;9.282;2022-12-18T06:41:23;34.53;;;30.90;;
1366;SDS011;16877;48.810;9.282;2022-12-18T06:43:50;33.47;;;30.07;;
1366;SDS011;16877;48.810;9.282;2022-12-18T06:46:18;32.57;;;29.07;;
1366;SDS011;16877;48.810;9.282;2022-12-18T06:48:47;32.90;;;29.20;;
1366;SDS011;16877;48.810;9.282;2022-12-18T06:51:17;33.97;;;30.33;;
1366;SDS011;16877;48.810;9.282;2022-12-18T06:53:59;32.40;;;28.47;;
1366;SDS011;16877;48.810;9.282;2022-12-18T06:56:30;34.87;;;31.10;;
1366;SDS011;16877;48.810;9.282;2022-12-18T06:58:58;34.23;;;30.53;;
1366;SDS011;16877;48.810;9.282;2022-12-18T07:01:27;33.53;;;30.00;;
1366;SDS011;16877;48.810;9.282;2022-12-18T07:03:59;33.30;;;29.53;;
1366;SDS011;16877;48.810;9.282;2022-12-18T07:06:27;33.00;;;28.80;;
1366;SDS011;16877;48.810;9.282;2022-12-18T07:08:55;33.90;;;29.33;;
1366;SDS011;16877;48.810;9.282;2022-12-18T07:11:22;33.67;;;30.07;;
1366;SDS011;16877;48.810;9.282;2022-12-18T07:13:51;35.97;;;30.37;;
1366;SDS011;16877;48.810;9.282;2022-12-18T07:16:20;31.87;;;28.47;;
1366;SDS011;16877;48.810;9.282;2022-12-18T07:18:47;35.33;;;30.13;;
1366;SDS011;16877;48.810;9.282;2022-12-18T07:21:17;32.27;;;28.77;;
1366;SDS011;16877;48.810;9.282;2022-12-18T07:23:46;32.10;;;27.80;;
1366;SDS011;16877;48.810;9.282;2022-12-18T07:26:13;34.60;;;28.97;;
1366;SDS011;16877;48.810;9.282;2022-12-18T07:28:43;32.73;;;28.17;;
1366;SDS011;16877;48.810;9.282;2022-12-18T07:31:13;36.50;;;32.57;;
1366;SDS011;16877;48.810;9.282;2022-12-18T07:33:47;39.40;;;35.03;;
1366;SDS011;16877;48.810;9.282;2022-12-18T07:36:17;41.23;;;36.70;;
1366;SDS011;16877;48.810;9.282;2022-12-18T07:38:46;37.50;;;33.70;;
1366;SDS011;16877;48.810;9.282;2022-12-18T07:41:26;33.87;;;30.23;;
1366;SDS011;16877;48.810;9.282;2022-12-18T07:43:53;39.67;;;35.70;;
1366;SDS011;16877;48.810;9.282;2022-12-18T07:46:23;38.00;;;34.00;;
1366;SDS011;16877;48.810;9.282;2022-12-18T07:48:50;37.13;;;32.73;;
1366;SDS011;16877;48.810;9.282;2022-12-18T07:51:20;37.57;;;32.93;;
1366;SDS011;16877;48.810;9.282;2022-12-18T07:54:03;37.23;;;33.30;;
1366;SDS011;16877;48.810;9.282;2022-12-18T07:56:31;39.87;;;35.70;;
1366;SDS011;16877;48.810;9.282;2022-12-18T07:59:13;39.70;;;35.37;;
1366;SDS011;16877;48.810;9.282;2022-12-18T08:01:43;42.93;;;36.40;;
1366;SDS011;16877;48.810;9.282;2022-12-18T08:04:25;40.60;;;35.27;;
1366;SDS011;16877;48.810;9.282;2022-12-18T08:07:06;39.17;;;34.80;;
1366;SDS011;16877;48.810;9.282;2022-12-18T08:09:35;39.10;;;35.00;;
1366;SDS011;16877;48.810;9.282;2022-12-18T08:12:13;37.97;;;33.73;;
1366;SDS011;16877;48.810;9.282;2022-12-18T08:14:42;38.00;;;31.67;;
1366;SDS011;16877;48.810;9.282;2022-12-18T08:17:19;38.77;;;31.70;;
1366;SDS011;16877;48.810;9.282;2022-12-18T08:19:47;40.80;;;33.07;;
1366;SDS011;16877;48.810;9.282;2022-12-18T08:22:15;38.47;;;31.33;;
1366;SDS011;16877;48.810;9.282;2022-12-18T08:24:45;37.73;;;31.57;;
1366;SDS011;16877;48.810;9.282;2022-12-18T08:27:13;41.90;;;32.87;;
1366;SDS011;16877;48.810;9.282;2022-12-18T08:29:43;37.73;;;32.80;;
1366;SDS011;16877;48.810;9.282;2022-12-18T08:32:12;38.60;;;33.17;;
1366;SDS011;16877;48.810;9.282;2022-12-18T08:34:43;38.27;;;33.30;;
1366;SDS011;16877;48.810;9.282;2022-12-18T08:37:11;35.83;;;30.70;;
1366;SDS011;16877;48.810;9.282;2022-12-18T08:39:44;37.23;;;32.07;;
1366;SDS011;16877;48.810;9.282;2022-12-18T08:42:12;35.93;;;31.90;;
1366;SDS011;16877;48.810;9.282;2022-12-18T08:44:56;25.93;;;21.80;;
1366;SDS011;16877;48.810;9.282;2022-12-18T08:47:24;29.60;;;24.40;;
1366;SDS011;16877;48.810;9.282;2022-12-18T08:49:53;32.83;;;28.37;;
1366;SDS011;16877;48.810;9.282;2022-12-18T08:52:22;35.37;;;28.63;;
1366;SDS011;16877;48.810;9.282;2022-12-18T08:54:52;36.80;;;30.10;;
1366;SDS011;16877;48.810;9.282;2022-12-18T08:57:20;35.40;;;29.60;;
1366;SDS011;16877;48.810;9.282;2022-12-18T08:59:48;36.37;;;30.17;;
1366;SDS011;16877;48.810;9.282;2022-12-18T09:02:16;34.60;;;29.90;;
1366;SDS011;16877;48.810;9.282;2022-12-18T09:04:46;38.20;;;31.33;;
1366;SDS011;16877;48.810;9.282;2022-12-18T09:07:15;40.07;;;32.10;;
1366;SDS011;16877;48.810;9.282;2022-12-18T09:09:57;37.87;;;31.50;;
1366;SDS011;16877;48.810;9.282;2022-12-18T09:12:25;39.80;;;34.37;;
1366;SDS011;16877;48.810;9.282;2022-12-18T09:15:14;36.23;;;32.00;;
1366;SDS011;16877;48.810;9.282;2022-12-18T09:17:42;36.87;;;31.47;;
1366;SDS011;16877;48.810;9.282;2022-12-18T09:20:24;33.10;;;29.60;;
1366;SDS011;16877;48.810;9.282;2022-12-18T09:22:56;33.90;;;30.20;;
1366;SDS011;16877;48.810;9.282;2022-12-18T09:25:24;36.13;;;30.90;;
1366;SDS011;16877;48.810;9.282;2022-12-18T09:27:56;36.23;;;31.83;;
1366;SDS011;16877;48.810;9.282;2022-12-18T09:30:25;37.27;;;32.20;;
1366;SDS011;16877;48.810;9.282;2022-12-18T09:32:52;36.03;;;31.10;;
1366;SDS011;16877;48.810;9.282;2022-12-18T09:35:25;36.57;;;32.40;;
1366;SDS011;16877;48.810;9.282;2022-12-18T09:37:52;36.30;;;31.03;;
1366;SDS011;16877;48.810;9.282;2022-12-18T09:40:39;34.83;;;30.50;;
1366;SDS011;16877;48.810;9.282;2022-12-18T09:43:13;36.83;;;30.80;;
1366;SDS011;16877;48.810;9.282;2022-12-18T09:45:45;41.77;;;34.10;;
1366;SDS011;16877;48.810;9.282;2022-12-18T09:48:18;34.87;;;30.40;;
1366;SDS011;16877;48.810;9.282;2022-12-18T09:50:47;39.97;;;33.77;;
1366;SDS011;16877;48.810;9.282;2022-12-18T09:53:23;34.70;;;30.57;;
1366;SDS011;16877;48.810;9.282;2022-12-18T09:55:55;36.07;;;31.77;;
1366;SDS011;16877;48.810;9.282;2022-12-18T09:58:33;35.67;;;31.77;;
1366;SDS011;16877;48.810;9.282;2022-12-18T10:01:09;33.27;;;28.60;;
1366;SDS011;16877;48.810;9.282;2022-12-18T10:03:38;33.53;;;29.33;;
1366;SDS011;16877;48.810;9.282;2022-12-18T10:06:20;37.60;;;32.57;;
1366;SDS011;16877;48.810;9.282;2022-12-18T10:09:08;24.77;;;22.10;;
1366;SDS011;16877;48.810;9.282;2022-12-18T10:11:48;32.27;;;28.47;;
1366;SDS011;16877;48.810;9.282;2022-12-18T10:14:22;33.67;;;29.97;;
1366;SDS011;16877;48.810;9.282;2022-12-18T10:16:58;37.60;;;31.40;;
1366;SDS011;16877;48.810;9.282;2022-12-18T10:19:33;32.73;;;29.23;;
1366;SDS011;16877;48.810;9.282;2022-12-18T10:22:22;35.37;;;31.60;;
1366;SDS011;16877;48.810;9.282;2022-12-18T10:25:02;38.40;;;31.07;;
1366;SDS011;16877;48.810;9.282;2022-12-18T10:27:37;32.23;;;28.57;;
1366;SDS011;16877;48.810;9.282;2022-12-18T10:30:12;35.37;;;30.43;;
1366;SDS011;16877;48.810;9.282;2022-12-18T10:32:49;32.63;;;27.77;;
1366;SDS011;16877;48.810;9.282;2022-12-18T10:35:20;34.80;;;29.43;;
1366;SDS011;16877;48.810;9.282;2022-12-18T10:38:02;35.07;;;29.87;;
1366;SDS011;16877;48.810;9.282;2022-12-18T10:40:47;31.87;;;28.43;;
1366;SDS011;16877;48.810;9.282;2022-12-18T10:43:20;31.50;;;27.67;;
1366;SDS011;16877;48.810;9.282;2022-12-18T10:46:04;31.80;;;28.30;;
1366;SDS011;16877;48.810;9.282;2022-12-18T10:48:53;33.77;;;28.07;;
1366;SDS011;16877;48.810;9.282;2022-12-18T10:51:23;35.30;;;29.47;;
1366;SDS011;16877;48.810;9.282;2022-12-18T10:54:03;32.97;;;28.50;;
1366;SDS011;16877;48.810;9.282;2022-12-18T10:56:46;31.50;;;27.33;;
1366;SDS011;16877;48.810;9.282;2022-12-18T10:59:15;32.20;;;28.00;;
1366;SDS011;16877;48.810;9.282;2022-12-18T11:01:45;31.40;;;28.10;;
1366;SDS011;16877;48.810;9.282;2022-12-18T11:04:20;34.27;;;27.63;;
1366;SDS011;16877;48.810;9.282;2022-12-18T11:06:59;28.43;;;25.33;;
1366;SDS011;16877;48.810;9.282;2022-12-18T11:09:31;29.40;;;26.20;;
1366;SDS011;16877;48.810;9.282;2022-12-18T11:12:08;28.87;;;24.30;;
1366;SDS011;16877;48.810;9.282;2022-12-18T11:14:57;26.17;;;23.13;;
1366;SDS011;16877;48.810;9.282;2022-12-18T11:17:27;32.20;;;27.33;;
1366;SDS011;16877;48.810;9.282;2022-12-18T11:19:56;22.40;;;19.60;;
1366;SDS011;16877;48.810;9.282;2022-12-18T11:22:26;12.07;;;10.70;;
1366;SDS011;16877;48.810;9.282;2022-12-18T11:25:17;12.23;;;11.03;;
1366;SDS011;16877;48.810;9.282;2022-12-18T11:27:51;13.23;;;11.83;;
1366;SDS011;16877;48.810;9.282;2022-12-18T11:30:36;14.30;;;11.37;;
1366;SDS011;16877;48.810;9.282;2022-12-18T11:33:20;13.90;;;11.13;;
1366;SDS011;16877;48.810;9.282;2022-12-18T11:36:04;12.70;;;11.27;;
1366;SDS011;16877;48.810;9.282;2022-12-18T11:38:51;12.83;;;11.00;;
1366;SDS011;16877;48.810;9.282;2022-12-18T11:41:23;11.33;;;10.23;;
1366;SDS011;16877;48.810;9.282;2022-12-18T11:44:15;14.53;;;10.63;;
1366;SDS011;16877;48.810;9.282;2022-12-18T11:46:55;12.23;;;10.13;;
1366;SDS011;16877;48.810;9.282;2022-12-18T11:49:45;13.93;;;11.00;;
1366;SDS011;16877;48.810;9.282;2022-12-18T11:52:26;11.10;;;9.90;;
1366;SDS011;16877;48.810;9.282;2022-12-18T11:55:09;16.47;;;14.43;;
1366;SDS011;16877;48.810;9.282;2022-12-18T11:57:41;19.00;;;16.93;;
1366;SDS011;16877;48.810;9.282;2022-12-18T12:00:36;21.17;;;19.07;;
1366;SDS011;16877;48.810;9.282;2022-12-18T12:03:18;15.63;;;12.50;;
1366;SDS011;16877;48.810;9.282;2022-12-18T12:05:57;17.37;;;11.97;;
1366;SDS011;16877;48.810;9.282;2022-12-18T12:08:32;17.47;;;11.03;;
1366;SDS011;16877;48.810;9.282;2022-12-18T12:11:10;17.80;;;12.20;;
1366;SDS011;16877;48.810;9.282;2022-12-18T12:14:03;23.00;;;12.20;;
1366;SDS011;16877;48.810;9.282;2022-12-18T12:17:01;17.93;;;11.20;;
1366;SDS011;16877;48.810;9.282;2022-12-18T12:19:50;24.43;;;11.40;;
1366;SDS011;16877;48.810;9.282;2022-12-18T12:22:30;17.93;;;11.07;;
1366;SDS011;16877;48.810;9.282;2022-12-18T12:25:08;18.10;;;12.43;;
1366;SDS011;16877;48.810;9.282;2022-12-18T12:27:47;17.97;;;16.07;;
1366;SDS011;16877;48.810;9.282;2022-12-18T12:30:21;20.80;;;18.60;;
1366;SDS011;16877;48.810;9.282;2022-12-18T12:33:02;23.10;;;20.57;;
1366;SDS011;16877;48.810;9.282;2022-12-18T12:35:52;23.47;;;20.97;;
1366;SDS011;16877;48.810;9.282;2022-12-18T12:38:29;26.47;;;23.73;;
1366;SDS011;16877;48.810;9.282;2022-12-18T12:41:01;24.97;;;22.37;;
1366;SDS011;16877;48.810;9.282;2022-12-18T12:43:32;23.40;;;20.90;;
1366;SDS011;16877;48.810;9.282;2022-12-18T12:46:04;26.53;;;23.10;;
1366;SDS011;16877;48.810;9.282;2022-12-18T12:48:42;27.13;;;24.13;;
1366;SDS011;16877;48.810;9.282;2022-12-18T12:51:22;26.33;;;23.70;;
1366;SDS011;16877;48.810;9.282;2022-12-18T12:53:52;26.33;;;23.53;;
1366;SDS011;16877;48.810;9.282;2022-12-18T12:56:31;26.97;;;23.73;;
1366;SDS011;16877;48.810;9.282;2022-12-18T12:59:08;27.63;;;24.60;;
1366;SDS011;16877;48.810;9.282;2022-12-18T13:01:40;29.50;;;26.37;;
1366;SDS011;16877;48.810;9.282;2022-12-18T13:04:20;30.03;;;26.40;;
1366;SDS011;16877;48.810;9.282;2022-12-18T13:06:54;30.27;;;26.60;;
1366;SDS011;16877;48.810;9.282;2022-12-18T13:09:29;30.37;;;27.20;;
1366;SDS011;16877;48.810;9.282;2022-12-18T13:12:01;32.10;;;28.80;;
1366;SDS011;16877;48.810;9.282;2022-12-18T13:14:47;31.37;;;28.17;;
1366;SDS011;16877;48.810;9.282;2022-12-18T13:17:30;31.20;;;27.90;;
1366;SDS011;16877;48.810;9.282;2022-12-18T13:20:12;30.70;;;27.40;;
1366;SDS011;16877;48.810;9.282;2022-12-18T13:22:42;32.83;;;27.07;;
1366;SDS011;16877;48.810;9.282;2022-12-18T13:25:30;27.73;;;24.83;;
1366;SDS011;16877;48.810;9.282;2022-12-18T13:28:08;30.90;;;27.50;;
1366;SDS011;16877;48.810;9.282;2022-12-18T13:30:41;30.33;;;26.93;;
1366;SDS011;16877;48.810;9.282;2022-12-18T13:36:26;33.23;;;29.70;;
1366;SDS011;16877;48.810;9.282;2022-12-18T13:48:13;36.87;;;32.97;;
1366;SDS011;16877;48.810;9.282;2022-12-18T13:50:49;37.33;;;33.37;;
1366;SDS011;16877;48.810;9.282;2022-12-18T13:53:38;35.23;;;31.20;;
1366;SDS011;16877;48.810;9.282;2022-12-18T13:56:10;35.73;;;31.23;;
1366;SDS011;16877;48.810;9.282;2022-12-18T13:58:42;34.90;;;31.20;;
1366;SDS011;16877;48.810;9.282;2022-12-18T14:01:21;34.07;;;30.17;;
1366;SDS011;16877;48.810;9.282;2022-12-18T14:03:49;30.60;;;27.27;;
1366;SDS011;16877;48.810;9.282;2022-12-18T14:06:17;28.70;;;25.70;;
1366;SDS011;16877;48.810;9.282;2022-12-18T14:09:01;28.83;;;25.83;;
1366;SDS011;16877;48.810;9.282;2022-12-18T14:11:47;29.03;;;24.93;;
1366;SDS011;16877;48.810;9.282;2022-12-18T14:14:16;27.73;;;23.97;;
1366;SDS011;16877;48.810;9.282;2022-12-18T14:16:44;26.47;;;23.50;;
1366;SDS011;16877;48.810;9.282;2022-12-18T14:19:16;26.83;;;23.33;;
1366;SDS011;16877;48.810;9.282;2022-12-18T14:21:45;28.60;;;23.80;;
1366;SDS011;16877;48.810;9.282;2022-12-18T14:24:16;30.70;;;26.40;;
1366;SDS011;16877;48.810;9.282;2022-12-18T14:26:45;20.03;;;17.80;;
1366;SDS011;16877;48.810;9.282;2022-12-18T14:29:24;22.80;;;20.03;;
1366;SDS011;16877;48.810;9.282;2022-12-18T14:32:06;25.90;;;23.00;;
1366;SDS011;16877;48.810;9.282;2022-12-18T14:34:34;27.30;;;22.70;;
1366;SDS011;16877;48.810;9.282;2022-12-18T14:37:01;26.40;;;22.60;;
1366;SDS011;16877;48.810;9.282;2022-12-18T14:39:31;25.00;;;22.03;;
1366;SDS011;16877;48.810;9.282;2022-12-18T14:41:58;27.23;;;21.77;;
1366;SDS011;16877;48.810;9.282;2022-12-18T14:44:30;28.20;;;23.43;;
1366;SDS011;16877;48.810;9.282;2022-12-18T14:46:57;27.67;;;22.93;;
1366;SDS011;16877;48.810;9.282;2022-12-18T14:49:26;24.40;;;21.23;;
1366;SDS011;16877;48.810;9.282;2022-12-18T14:51:56;25.90;;;22.73;;
1366;SDS011;16877;48.810;9.282;2022-12-18T14:54:31;25.40;;;21.33;;
1366;SDS011;16877;48.810;9.282;2022-12-18T14:57:00;26.90;;;24.00;;
1366;SDS011;16877;48.810;9.282;2022-12-18T14:59:32;26.10;;;23.30;;
1366;SDS011;16877;48.810;9.282;2022-12-18T15:02:03;27.30;;;22.43;;
1366;SDS011;16877;48.810;9.282;2022-12-18T15:04:37;25.23;;;22.23;;
1366;SDS011;16877;48.810;9.282;2022-12-18T15:07:22;24.40;;;21.87;;
1366;SDS011;16877;48.810;9.282;2022-12-18T15:10:03;26.00;;;22.50;;
1366;SDS011;16877;48.810;9.282;2022-12-18T15:12:37;26.53;;;21.70;;
1366;SDS011;16877;48.810;9.282;2022-12-18T15:18:10;29.93;;;24.50;;
1366;SDS011;16877;48.810;9.282;2022-12-18T15:20:42;31.23;;;27.07;;
1366;SDS011;16877;48.810;9.282;2022-12-18T15:23:14;31.40;;;27.90;;
1366;SDS011;16877;48.810;9.282;2022-12-18T15:25:48;31.03;;;25.27;;
1366;SDS011;16877;48.810;9.282;2022-12-18T15:28:22;31.73;;;25.40;;